Time;durP1;ratioP1;P1;durP2;ratioP2;P2;SDS_P1;SDS_P2;PMS_P1;PMS_P2;Temp;Humidity;BMP_temperature;BMP_pressure;BME280_temperature;BME280_humidity;BME280_pressure;Samples;Min_cycle;Max_cycle;Signal;HPM_P1;HPM_P2
2022/10/26 00:01:01;;;;;;;;;;;;;;;;;;4898523;29;19922;-96
2022/10/26 00:03:27;;;;;;;;;;;;;;;;;;4897727;29;19961;-95
2022/10/26 00:05:52;;;;;;;;;;;;;;;;;;4892333;29;20034;-95
2022/10/26 00:08:18;;;;;;;;;;;;;;;;;;4905077;29;19943;-94
2022/10/26 00:10:43;;;;;;;;;;;;;;;;;;4895470;29;20370;-94
2022/10/26 00:13:08;;;;;;;;;;;;;;;;;;4916757;29;19915;-94
2022/10/26 00:15:34;;;;;;;;;;;;;;;;;;4903414;29;20378;-96
2022/10/26 00:17:59;;;;;;;;;;;;;;;;;;4910795;29;19925;-95
2022/10/26 00:20:24;;;;;;;;;;;;;;;;;;4911478;29;20047;-95
2022/10/26 00:22:50;;;;;;;;;;;;;;;;;;4895004;29;19930;-95
2022/10/26 00:25:15;;;;;;;;;;;;;;;;;;4915724;29;19915;-94
2022/10/26 00:27:41;;;;;;;;;;;;;;;;;;4909234;29;19922;-93
2022/10/26 00:30:06;;;;;;;;;;;;;;;;;;4907901;29;19915;-94
2022/10/26 00:32:31;;;;;;;;;;;;;;;;;;4899379;29;19975;-95
2022/10/26 00:34:57;;;;;;;;;;;;;;;;;;4890978;29;19919;-95
2022/10/26 00:37:22;;;;;;;;;;;;;;;;;;4891673;29;20006;-95
2022/10/26 00:39:47;;;;;;;;;;;;;;;;;;4893511;29;20013;-96
2022/10/26 00:42:13;;;;;;;;;;;;;;;;;;4877452;29;19975;-95
2022/10/26 00:44:38;;;;;;;;;;;;;;;;;;4876965;29;19915;-94
2022/10/26 00:47:03;;;;;;;;;;;;;;;;;;4895844;29;19938;-95
2022/10/26 00:49:29;;;;;;;;;;;;;;;;;;4922954;29;20061;-95
2022/10/26 00:51:54;;;;;;;;;;;;;;;;;;4921949;29;19926;-96
2022/10/26 00:54:20;;;;;;;;;;;;;;;;;;4904802;29;20069;-96
2022/10/26 00:56:45;;;;;;;;;;;;;;;;;;4922786;29;19974;-96
2022/10/26 00:59:11;;;;;;;;;;;;;;;;;;4906303;29;19915;-96
2022/10/26 01:01:39;;;;;;;;;;;;;;;;;;4899941;29;19915;-96
2022/10/26 01:04:04;;;;;;;;;;;;;;;;;;4921544;29;20115;-94
2022/10/26 01:06:30;;;;;;;;;;;;;;;;;;4905911;29;19950;-95
2022/10/26 01:08:55;;;;;;;;;;;;;;;;;;4897441;29;19914;-96
2022/10/26 01:11:20;;;;;;;;;;;;;;;;;;4926849;29;19962;-96
2022/10/26 01:13:46;;;;;;;;;;;;;;;;;;4899711;29;19920;-95
2022/10/26 01:16:11;;;;;;;;;;;;;;;;;;4895280;29;19919;-95
2022/10/26 01:18:37;;;;;;;;;;;;;;;;;;4917048;29;19985;-94
2022/10/26 01:21:02;;;;;;;;;;;;;;;;;;4895727;29;19960;-93
2022/10/26 01:23:27;;;;;;;;;;;;;;;;;;4900529;29;20032;-95
2022/10/26 01:25:53;;;;;;;;;;;;;;;;;;4894845;29;19919;-94
2022/10/26 01:28:18;;;;;;;;;;;;;;;;;;4905541;29;19939;-94
2022/10/26 01:30:44;;;;;;;;;;;;;;;;;;4895710;29;19911;-94
2022/10/26 01:33:09;;;;;;;;;;;;;;;;;;4909532;29;19946;-94
2022/10/26 01:35:41;;;;;;;;;;;;;;;;;;4937002;23;19992;-95
2022/10/26 01:38:28;;;;;;;;;;;;;;;;;;4984853;28;19922;-93
2022/10/26 01:40:56;;;;;;;;;;;;;;;;;;4997360;28;19921;-92
2022/10/26 01:43:22;;;;;;;;;;;;;;;;;;4996110;28;19914;-94
2022/10/26 01:45:50;;;;;;;;;;;;;;;;;;4994424;28;19914;-93
2022/10/26 01:48:15;;;;;;;;;;;;;;;;;;4992078;28;19921;-95
2022/10/26 01:50:41;;;;;;;;;;;;;;;;;;4975193;28;20373;-95
2022/10/26 01:53:06;;;;;;;;;;;;;;;;;;4955795;28;20147;-95
2022/10/26 01:55:34;;;;;;;;;;;;;;;;;;4966913;28;19918;-93
2022/10/26 01:58:02;;;;;;;;;;;;;;;;;;4962924;28;19914;-95
2022/10/26 02:00:27;;;;;;;;;;;;;;;;;;4970479;28;19925;-95
2022/10/26 02:02:53;;;;;;;;;;;;;;;;;;4995439;28;19914;-94
2022/10/26 02:05:18;;;;;;;;;;;;;;;;;;4981584;28;19937;-95
2022/10/26 02:07:44;;;;;;;;;;;;;;;;;;4961902;28;20008;-94
2022/10/26 02:10:09;;;;;;;;;;;;;;;;;;4962386;28;19958;-95
2022/10/26 02:12:35;;;;;;;;;;;;;;;;;;4946841;28;19918;-94
2022/10/26 02:15:00;;;;;;;;;;;;;;;;;;4961629;28;19918;-94
2022/10/26 02:17:25;;;;;;;;;;;;;;;;;;4953603;28;19953;-95
2022/10/26 02:19:51;;;;;;;;;;;;;;;;;;4960773;28;19914;-94
2022/10/26 02:22:16;;;;;;;;;;;;;;;;;;4946140;28;20366;-95
2022/10/26 02:24:42;;;;;;;;;;;;;;;;;;4946483;28;19914;-94
2022/10/26 02:27:07;;;;;;;;;;;;;;;;;;4951795;28;19924;-95
2022/10/26 02:29:32;;;;;;;;;;;;;;;;;;4961188;28;20426;-93
2022/10/26 02:31:58;;;;;;;;;;;;;;;;;;4961620;28;19941;-94
2022/10/26 02:34:23;;;;;;;;;;;;;;;;;;4963209;28;20432;-94
2022/10/26 02:36:49;;;;;;;;;;;;;;;;;;4960876;28;19925;-94
2022/10/26 02:39:14;;;;;;;;;;;;;;;;;;4949304;28;19921;-95
2022/10/26 02:41:40;;;;;;;;;;;;;;;;;;4952422;28;19922;-93
2022/10/26 02:44:05;;;;;;;;;;;;;;;;;;4975143;28;20386;-95
2022/10/26 02:46:30;;;;;;;;;;;;;;;;;;4942899;28;20393;-93
2022/10/26 02:48:56;;;;;;;;;;;;;;;;;;4974706;28;20278;-94
2022/10/26 02:51:21;;;;;;;;;;;;;;;;;;4949748;28;19914;-95
2022/10/26 02:53:46;;;;;;;;;;;;;;;;;;4959141;28;20386;-94
2022/10/26 02:56:15;;;;;;;;;;;;;;;;;;4958230;28;19918;-94
2022/10/26 02:58:40;;;;;;;;;;;;;;;;;;4957264;28;19914;-94
2022/10/26 03:01:06;;;;;;;;;;;;;;;;;;4962014;28;19914;-94
2022/10/26 03:03:31;;;;;;;;;;;;;;;;;;4950202;28;20001;-94
2022/10/26 03:05:56;;;;;;;;;;;;;;;;;;4962072;28;19932;-95
2022/10/26 03:08:22;;;;;;;;;;;;;;;;;;4962964;28;20376;-96
2022/10/26 03:10:47;;;;;;;;;;;;;;;;;;4958812;28;20005;-95
2022/10/26 03:13:13;;;;;;;;;;;;;;;;;;4958855;28;19958;-94
2022/10/26 03:15:38;;;;;;;;;;;;;;;;;;4971246;23;19922;-81
2022/10/26 03:18:04;;;;;;;;;;;;;;;;;;4940871;28;19918;-81
2022/10/26 03:20:29;;;;;;;;;;;;;;;;;;4955413;29;19966;-81
2022/10/26 03:22:55;;;;;;;;;;;;;;;;;;4970331;28;19946;-81
2022/10/26 03:25:21;;;;;;;;;;;;;;;;;;4971923;29;19914;-81
2022/10/26 03:27:50;;;;;;;;;;;;;;;;;;4944319;28;20386;-81
2022/10/26 03:30:16;;;;;;;;;;;;;;;;;;4925513;29;19915;-81
2022/10/26 03:32:41;;;;;;;;;;;;;;;;;;4943958;29;20041;-81
2022/10/26 03:35:10;;;;;;;;;;;;;;;;;;4933725;29;19922;-81
2022/10/26 03:37:35;;;;;;;;;;;;;;;;;;4934119;29;19915;-81
2022/10/26 03:40:01;;;;;;;;;;;;;;;;;;4918514;29;20004;-81
2022/10/26 03:42:27;;;;;;;;;;;;;;;;;;4946819;29;19921;-82
2022/10/26 03:44:53;;;;;;;;;;;;;;;;;;4950229;29;19919;-81
2022/10/26 03:47:18;;;;;;;;;;;;;;;;;;4954287;29;19918;-81
2022/10/26 03:49:44;;;;;;;;;;;;;;;;;;4970542;29;19921;-81
2022/10/26 03:52:10;;;;;;;;;;;;;;;;;;4939204;29;19922;-81
2022/10/26 03:54:35;;;;;;;;;;;;;;;;;;4972713;29;20029;-82
2022/10/26 03:57:01;;;;;;;;;;;;;;;;;;4956184;29;19926;-82
2022/10/26 03:59:27;;;;;;;;;;;;;;;;;;4974359;29;19924;-81
2022/10/26 04:01:52;;;;;;;;;;;;;;;;;;4951846;29;19970;-81
2022/10/26 04:04:18;;;;;;;;;;;;;;;;;;4931890;29;19929;-81
2022/10/26 04:06:44;;;;;;;;;;;;;;;;;;4944300;29;19962;-81
2022/10/26 04:09:09;;;;;;;;;;;;;;;;;;4944179;29;19921;-81
2022/10/26 04:11:35;;;;;;;;;;;;;;;;;;4933944;29;20362;-81
2022/10/26 04:14:00;;;;;;;;;;;;;;;;;;4952853;29;19914;-80
2022/10/26 04:16:26;;;;;;;;;;;;;;;;;;4918202;29;20271;-81
2022/10/26 04:18:55;;;;;;;;;;;;;;;;;;4967996;29;19914;-81
2022/10/26 04:21:20;;;;;;;;;;;;;;;;;;4939147;29;19961;-81
2022/10/26 04:23:46;;;;;;;;;;;;;;;;;;4955656;29;19920;-81
2022/10/26 04:26:12;;;;;;;;;;;;;;;;;;4971100;28;19914;-82
2022/10/26 04:28:37;;;;;;;;;;;;;;;;;;4938102;29;20403;-80
2022/10/26 04:31:03;;;;;;;;;;;;;;;;;;4956745;29;19915;-81
2022/10/26 04:33:28;;;;;;;;;;;;;;;;;;4970019;29;19918;-82
2022/10/26 04:35:54;;;;;;;;;;;;;;;;;;4948743;29;19926;-81
2022/10/26 04:38:20;;;;;;;;;;;;;;;;;;4954005;29;19979;-81
2022/10/26 04:40:46;;;;;;;;;;;;;;;;;;4953515;29;19962;-81
2022/10/26 04:43:11;;;;;;;;;;;;;;;;;;4955523;29;19926;-81
2022/10/26 04:45:46;;;;;;;;;;;;;;;;;;4940387;29;19914;-81
2022/10/26 04:48:11;;;;;;;;;;;;;;;;;;4939036;29;19922;-81
2022/10/26 04:50:40;;;;;;;;;;;;;;;;;;4938443;29;19911;-82
2022/10/26 04:53:08;;;;;;;;;;;;;;;;;;4954015;29;19921;-82
2022/10/26 04:55:34;;;;;;;;;;;;;;;;;;4948082;29;19973;-82
2022/10/26 04:58:05;;;;;;;;;;;;;;;;;;4926039;29;19918;-81
2022/10/26 05:00:31;;;;;;;;;;;;;;;;;;4912061;29;19915;-81
2022/10/26 05:02:57;;;;;;;;;;;;;;;;;;4938482;29;19938;-80
2022/10/26 05:05:22;;;;;;;;;;;;;;;;;;4953572;29;19915;-81
2022/10/26 05:07:48;;;;;;;;;;;;;;;;;;4952893;29;19918;-81
2022/10/26 05:10:14;;;;;;;;;;;;;;;;;;4951124;29;19921;-81
2022/10/26 05:12:39;;;;;;;;;;;;;;;;;;4949662;29;20286;-81
2022/10/26 05:15:06;;;;;;;;;;;;;;;;;;4931309;29;19925;-82
2022/10/26 05:17:33;;;;;;;;;;;;;;;;;;4932110;29;19918;-81
2022/10/26 05:20:04;;;;;;;;;;;;;;;;;;4948054;29;19942;-81
2022/10/26 05:22:30;;;;;;;;;;;;;;;;;;4947571;29;19914;-81
2022/10/26 05:24:59;;;;;;;;;;;;;;;;;;4930793;29;19922;-81
2022/10/26 05:27:25;;;;;;;;;;;;;;;;;;4915459;29;20378;-81
2022/10/26 05:29:51;;;;;;;;;;;;;;;;;;4948560;29;19914;-82
2022/10/26 05:32:16;;;;;;;;;;;;;;;;;;4934502;29;19914;-81
2022/10/26 05:34:45;;;;;;;;;;;;;;;;;;4935113;29;20298;-81
2022/10/26 05:37:10;;;;;;;;;;;;;;;;;;4950734;29;19926;-81
2022/10/26 05:39:36;;;;;;;;;;;;;;;;;;4932429;29;19914;-80
2022/10/26 05:42:08;;;;;;;;;;;;;;;;;;4947866;29;19914;-81
2022/10/26 05:44:36;;;;;;;;;;;;;;;;;;4931077;29;19915;-82
2022/10/26 05:47:01;;;;;;;;;;;;;;;;;;4930682;29;19915;-79
2022/10/26 05:49:27;;;;;;;;;;;;;;;;;;4932690;29;19922;-80
2022/10/26 05:51:55;;;;;;;;;;;;;;;;;;4964819;28;19993;-81
2022/10/26 05:54:21;;;;;;;;;;;;;;;;;;4931693;29;20350;-81
2022/10/26 05:56:46;;;;;;;;;;;;;;;;;;4951285;29;19965;-82
2022/10/26 05:59:13;;;;;;;;;;;;;;;;;;4919141;29;19938;-82
2022/10/26 06:01:39;;;;;;;;;;;;;;;;;;4934692;29;19918;-81
2022/10/26 06:04:08;;;;;;;;;;;;;;;;;;4967201;28;19922;-81
2022/10/26 06:06:34;;;;;;;;;;;;;;;;;;4934323;29;19915;-82
2022/10/26 06:09:08;;;;;;;;;;;;;;;;;;4937173;29;19915;-81
2022/10/26 06:11:37;;;;;;;;;;;;;;;;;;4951444;29;19954;-83
2022/10/26 06:14:13;;;;;;;;;;;;;;;;;;4922217;29;19921;-81
2022/10/26 06:19:41;;;;;;;;;;;;;;;;;;4953125;29;19961;-81
2022/10/26 06:22:14;;;;;;;;;;;;;;;;;;4920123;29;19921;-82
2022/10/26 06:24:49;;;;;;;;;;;;;;;;;;4953574;29;19918;-82
2022/10/26 06:27:19;;;;;;;;;;;;;;;;;;4921866;29;19914;-81
2022/10/26 06:29:53;;;;;;;;;;;;;;;;;;4936758;29;19915;-81
2022/10/26 06:32:22;;;;;;;;;;;;;;;;;;4934697;29;19979;-82
2022/10/26 06:34:52;;;;;;;;;;;;;;;;;;4934843;29;19918;-81
2022/10/26 06:37:26;;;;;;;;;;;;;;;;;;4932924;29;19917;-81
2022/10/26 06:40:04;;;;;;;;;;;;;;;;;;4948945;29;19914;-81
2022/10/26 06:42:30;;;;;;;;;;;;;;;;;;4936056;29;19914;-81
2022/10/26 06:44:59;;;;;;;;;;;;;;;;;;4951160;29;19915;-80
2022/10/26 06:47:25;;;;;;;;;;;;;;;;;;4933799;29;19954;-81
2022/10/26 06:49:56;;;;;;;;;;;;;;;;;;4934703;29;19949;-81
2022/10/26 06:52:22;;;;;;;;;;;;;;;;;;4920084;29;19914;-81
2022/10/26 06:54:50;;;;;;;;;;;;;;;;;;4953100;29;19914;-81
2022/10/26 06:57:15;;;;;;;;;;;;;;;;;;4950444;29;19915;-81
2022/10/26 06:59:41;;;;;;;;;;;;;;;;;;4948359;29;19921;-82
2022/10/26 07:02:07;;;;;;;;;;;;;;;;;;4933278;29;19977;-81
2022/10/26 07:04:33;;;;;;;;;;;;;;;;;;4974523;28;19905;-84
2022/10/26 07:07:02;;;;;;;;;;;;;;;;;;4975167;28;19923;-81
2022/10/26 07:09:31;;;;;;;;;;;;;;;;;;4941706;29;19941;-82
2022/10/26 07:11:59;;;;;;;;;;;;;;;;;;4944899;29;19918;-81
2022/10/26 07:14:26;;;;;;;;;;;;;;;;;;4957216;29;19954;-82
2022/10/26 07:16:55;;;;;;;;;;;;;;;;;;4942821;29;19926;-81
2022/10/26 07:19:24;;;;;;;;;;;;;;;;;;4941351;29;19942;-82
2022/10/26 07:22:07;;;;;;;;;;;;;;;;;;4956623;29;19910;-82
2022/10/26 07:24:36;;;;;;;;;;;;;;;;;;4939815;29;19921;-82
2022/10/26 07:27:07;;;;;;;;;;;;;;;;;;4942797;29;19922;-82
2022/10/26 07:29:38;;;;;;;;;;;;;;;;;;4940729;29;19921;-81
2022/10/26 07:32:04;;;;;;;;;;;;;;;;;;4954694;29;19914;-80
2022/10/26 07:34:33;;;;;;;;;;;;;;;;;;4953857;29;19918;-81
2022/10/26 07:37:02;;;;;;;;;;;;;;;;;;4937678;29;19919;-81
2022/10/26 07:39:31;;;;;;;;;;;;;;;;;;4950727;29;19945;-82
2022/10/26 07:42:00;;;;;;;;;;;;;;;;;;4967428;28;19915;-82
2022/10/26 07:44:26;;;;;;;;;;;;;;;;;;4951663;29;19914;-80
2022/10/26 07:46:58;;;;;;;;;;;;;;;;;;4936061;29;19914;-81
2022/10/26 07:49:27;;;;;;;;;;;;;;;;;;4951523;29;19921;-83
2022/10/26 07:52:02;;;;;;;;;;;;;;;;;;4950704;29;20370;-81
2022/10/26 07:54:34;;;;;;;;;;;;;;;;;;4950077;29;19918;-82
2022/10/26 07:57:02;;;;;;;;;;;;;;;;;;4930467;29;19914;-82
2022/10/26 07:59:39;;;;;;;;;;;;;;;;;;4934291;29;19919;-82
2022/10/26 08:02:05;;;;;;;;;;;;;;;;;;4949264;29;19922;-81
2022/10/26 08:04:30;;;;;;;;;;;;;;;;;;4950636;29;19921;-81
2022/10/26 08:06:56;;;;;;;;;;;;;;;;;;4965597;28;19915;-81
2022/10/26 08:09:22;;;;;;;;;;;;;;;;;;4933915;29;19914;-80
2022/10/26 08:11:47;;;;;;;;;;;;;;;;;;4934013;29;20008;-81
2022/10/26 08:14:16;;;;;;;;;;;;;;;;;;4963252;28;20413;-81
2022/10/26 08:16:42;;;;;;;;;;;;;;;;;;4955618;29;19934;-81
2022/10/26 08:19:09;;;;;;;;;;;;;;;;;;4965501;29;19964;-79
2022/10/26 08:21:34;;;;;;;;;;;;;;;;;;4943919;29;19954;-78
2022/10/26 08:24:00;;;;;;;;;;;;;;;;;;4929259;29;19915;-77
2022/10/26 08:26:25;;;;;;;;;;;;;;;;;;4947352;29;19982;-79
2022/10/26 08:28:51;;;;;;;;;;;;;;;;;;4967168;28;19921;-79
2022/10/26 08:31:16;;;;;;;;;;;;;;;;;;4936150;29;19954;-80
2022/10/26 08:33:42;;;;;;;;;;;;;;;;;;4935290;29;20048;-80
2022/10/26 08:36:18;;;;;;;;;;;;;;;;;;4948597;29;19918;-80
2022/10/26 08:38:44;;;;;;;;;;;;;;;;;;4951158;29;20441;-78
2022/10/26 08:41:10;;;;;;;;;;;;;;;;;;4939623;29;19910;-79
2022/10/26 08:43:35;;;;;;;;;;;;;;;;;;4922507;29;19946;-80
2022/10/26 08:46:01;;;;;;;;;;;;;;;;;;4955842;29;19922;-78
2022/10/26 08:48:26;;;;;;;;;;;;;;;;;;4954918;29;19938;-78
2022/10/26 08:50:52;;;;;;;;;;;;;;;;;;4962114;29;19922;-78
2022/10/26 08:53:18;;;;;;;;;;;;;;;;;;4931483;29;19919;-79
2022/10/26 08:55:43;;;;;;;;;;;;;;;;;;4963441;28;19918;-79
2022/10/26 08:58:09;;;;;;;;;;;;;;;;;;4933241;29;19914;-78
2022/10/26 09:00:35;;;;;;;;;;;;;;;;;;4948476;29;19922;-79
2022/10/26 09:03:00;;;;;;;;;;;;;;;;;;4939156;29;19915;-80
2022/10/26 09:05:26;;;;;;;;;;;;;;;;;;4929499;29;19914;-80
2022/10/26 09:07:51;;;;;;;;;;;;;;;;;;4930158;29;19919;-81
2022/10/26 09:10:17;;;;;;;;;;;;;;;;;;4912487;29;19915;-80
2022/10/26 09:12:43;;;;;;;;;;;;;;;;;;4956931;28;20275;-81
2022/10/26 09:15:09;;;;;;;;;;;;;;;;;;4945780;29;19929;-81
2022/10/26 09:17:35;;;;;;;;;;;;;;;;;;4946927;23;20398;-79
2022/10/26 09:20:00;;;;;;;;;;;;;;;;;;4907071;29;19910;-80
2022/10/26 09:22:26;;;;;;;;;;;;;;;;;;4905792;29;19922;-82
2022/10/26 09:24:51;;;;;;;;;;;;;;;;;;4939575;29;19981;-82
2022/10/26 09:27:17;;;;;;;;;;;;;;;;;;4931206;29;19922;-82
2022/10/26 09:29:42;;;;;;;;;;;;;;;;;;4920332;29;20345;-82
2022/10/26 09:32:08;;;;;;;;;;;;;;;;;;4920122;29;19987;-83
2022/10/26 09:34:34;;;;;;;;;;;;;;;;;;4939246;29;19915;-84
2022/10/26 09:37:00;;;;;;;;;;;;;;;;;;4902195;29;19915;-83
2022/10/26 09:39:25;;;;;;;;;;;;;;;;;;4913176;29;19925;-83
2022/10/26 09:41:50;;;;;;;;;;;;;;;;;;4911622;29;19915;-84
2022/10/26 09:44:16;;;;;;;;;;;;;;;;;;4937446;29;20374;-84
2022/10/26 09:46:41;;;;;;;;;;;;;;;;;;4896026;29;19946;-83
2022/10/26 09:49:07;;;;;;;;;;;;;;;;;;4953878;29;20339;-83
2022/10/26 09:51:32;;;;;;;;;;;;;;;;;;4904463;29;19962;-83
2022/10/26 09:54:00;;;;;;;;;;;;;;;;;;4934296;29;19915;-83
2022/10/26 09:56:26;;;;;;;;;;;;;;;;;;4947018;29;19969;-84
2022/10/26 09:58:51;;;;;;;;;;;;;;;;;;4921875;29;20039;-84
2022/10/26 10:01:17;;;;;;;;;;;;;;;;;;4943971;29;19915;-83
2022/10/26 10:03:42;;;;;;;;;;;;;;;;;;4943624;29;19949;-83
2022/10/26 10:06:07;;;;;;;;;;;;;;;;;;4940057;29;19911;-83
2022/10/26 10:08:33;;;;;;;;;;;;;;;;;;4920251;29;20282;-84
2022/10/26 10:10:58;;;;;;;;;;;;;;;;;;4940203;29;19915;-80
2022/10/26 10:13:24;;;;;;;;;;;;;;;;;;4937166;29;19914;-82
2022/10/26 10:15:49;;;;;;;;;;;;;;;;;;4917530;29;20283;-80
2022/10/26 10:18:15;;;;;;;;;;;;;;;;;;4940304;29;20267;-80
2022/10/26 10:20:40;;;;;;;;;;;;;;;;;;4910862;29;19986;-81
2022/10/26 10:23:06;;;;;;;;;;;;;;;;;;4905889;29;19923;-82
2022/10/26 10:25:32;;;;;;;;;;;;;;;;;;4931221;29;19925;-82
2022/10/26 10:27:57;;;;;;;;;;;;;;;;;;4925479;29;19915;-82
2022/10/26 10:30:22;;;;;;;;;;;;;;;;;;4934639;29;19993;-81
2022/10/26 10:32:48;;;;;;;;;;;;;;;;;;4907046;29;19937;-82
2022/10/26 10:35:13;;;;;;;;;;;;;;;;;;4947170;29;19918;-82
2022/10/26 10:37:41;;;;;;;;;;;;;;;;;;4936786;29;20021;-81
2022/10/26 10:40:06;;;;;;;;;;;;;;;;;;4928390;29;20005;-80
2022/10/26 10:42:31;;;;;;;;;;;;;;;;;;4934305;29;20017;-78
2022/10/26 10:44:57;;;;;;;;;;;;;;;;;;4934327;29;20005;-82
2022/10/26 10:47:22;;;;;;;;;;;;;;;;;;4925212;29;20009;-82
2022/10/26 10:49:48;;;;;;;;;;;;;;;;;;4911453;29;19919;-84
2022/10/26 10:52:13;;;;;;;;;;;;;;;;;;4932607;29;19914;-86
2022/10/26 10:54:39;;;;;;;;;;;;;;;;;;4894671;29;20017;-87
2022/10/26 10:57:04;;;;;;;;;;;;;;;;;;4919131;29;20274;-87
2022/10/26 10:59:30;;;;;;;;;;;;;;;;;;4919486;29;19921;-87
2022/10/26 11:01:55;;;;;;;;;;;;;;;;;;4923424;29;19919;-87
2022/10/26 11:04:21;;;;;;;;;;;;;;;;;;4887960;29;19915;-86
2022/10/26 11:06:46;;;;;;;;;;;;;;;;;;4919491;29;19915;-87
2022/10/26 11:09:12;;;;;;;;;;;;;;;;;;4919699;29;19918;-86
2022/10/26 11:11:37;;;;;;;;;;;;;;;;;;4919986;29;20002;-87
2022/10/26 11:14:03;;;;;;;;;;;;;;;;;;4888412;29;20006;-87
2022/10/26 11:16:28;;;;;;;;;;;;;;;;;;4919940;29;20398;-88
2022/10/26 11:18:54;;;;;;;;;;;;;;;;;;4888550;29;19914;-87
2022/10/26 11:21:19;;;;;;;;;;;;;;;;;;4888672;29;19918;-87
2022/10/26 11:23:45;;;;;;;;;;;;;;;;;;4935895;29;20338;-87
2022/10/26 11:26:10;;;;;;;;;;;;;;;;;;4904243;29;19946;-86
2022/10/26 11:28:36;;;;;;;;;;;;;;;;;;4905723;29;19915;-87
2022/10/26 11:31:01;;;;;;;;;;;;;;;;;;4904956;29;20409;-86
2022/10/26 11:33:27;;;;;;;;;;;;;;;;;;4920577;29;20007;-87
2022/10/26 11:35:55;;;;;;;;;;;;;;;;;;4922346;29;19934;-86
2022/10/26 11:38:21;;;;;;;;;;;;;;;;;;4922076;29;19925;-87
2022/10/26 11:40:46;;;;;;;;;;;;;;;;;;4921945;29;19915;-86
2022/10/26 11:43:12;;;;;;;;;;;;;;;;;;4921791;29;20409;-85
2022/10/26 11:45:37;;;;;;;;;;;;;;;;;;4922015;29;20083;-85
2022/10/26 11:48:03;;;;;;;;;;;;;;;;;;4920919;29;19915;-80
2022/10/26 11:50:28;;;;;;;;;;;;;;;;;;4903130;29;19926;-82
2022/10/26 11:52:54;;;;;;;;;;;;;;;;;;4918541;29;19921;-83
2022/10/26 11:55:19;;;;;;;;;;;;;;;;;;4918244;29;20442;-78
2022/10/26 11:57:45;;;;;;;;;;;;;;;;;;4918839;29;19915;-77
2022/10/26 12:00:11;;;;;;;;;;;;;;;;;;4919282;29;19954;-77
2022/10/26 12:02:36;;;;;;;;;;;;;;;;;;4917684;29;20319;-79
2022/10/26 12:05:02;;;;;;;;;;;;;;;;;;4935574;29;19919;-77
2022/10/26 12:07:28;;;;;;;;;;;;;;;;;;4936282;29;19969;-82
2022/10/26 12:09:53;;;;;;;;;;;;;;;;;;4925077;29;19915;-81
2022/10/26 12:12:19;;;;;;;;;;;;;;;;;;4933527;29;20395;-80
2022/10/26 12:14:44;;;;;;;;;;;;;;;;;;4932859;29;19925;-81
2022/10/26 12:17:09;;;;;;;;;;;;;;;;;;4937430;29;19918;-80
2022/10/26 12:19:35;;;;;;;;;;;;;;;;;;4903420;29;19915;-79
2022/10/26 12:22:01;;;;;;;;;;;;;;;;;;4921168;29;19954;-81
2022/10/26 12:24:26;;;;;;;;;;;;;;;;;;4919385;29;20367;-79
2022/10/26 12:26:52;;;;;;;;;;;;;;;;;;4935780;29;19922;-87
2022/10/26 12:29:17;;;;;;;;;;;;;;;;;;4892547;29;19915;-85
2022/10/26 12:31:43;;;;;;;;;;;;;;;;;;4938946;29;19939;-84
2022/10/26 12:34:08;;;;;;;;;;;;;;;;;;4951432;29;19915;-84
2022/10/26 12:36:33;;;;;;;;;;;;;;;;;;4951185;29;19915;-85
2022/10/26 12:39:02;;;;;;;;;;;;;;;;;;4914037;29;19946;-85
2022/10/26 12:41:28;;;;;;;;;;;;;;;;;;4908353;29;19914;-86
2022/10/26 12:43:53;;;;;;;;;;;;;;;;;;4912839;29;19922;-86
2022/10/26 12:46:19;;;;;;;;;;;;;;;;;;4921135;29;19914;-86
2022/10/26 12:48:44;;;;;;;;;;;;;;;;;;4935485;29;19936;-85
2022/10/26 12:51:10;;;;;;;;;;;;;;;;;;4928984;29;19921;-84
2022/10/26 12:53:36;;;;;;;;;;;;;;;;;;4931575;29;19911;-84
2022/10/26 12:56:01;;;;;;;;;;;;;;;;;;4933412;29;20002;-82
2022/10/26 12:58:27;;;;;;;;;;;;;;;;;;4949697;29;19910;-82
2022/10/26 13:00:52;;;;;;;;;;;;;;;;;;4919201;29;19925;-82
2022/10/26 13:03:17;;;;;;;;;;;;;;;;;;4909591;29;19925;-83
2022/10/26 13:05:43;;;;;;;;;;;;;;;;;;4942829;29;20369;-81
2022/10/26 13:08:08;;;;;;;;;;;;;;;;;;4953307;29;19915;-86
2022/10/26 13:10:34;;;;;;;;;;;;;;;;;;4923347;29;19993;-89
2022/10/26 13:12:59;;;;;;;;;;;;;;;;;;4933576;29;19962;-89
2022/10/26 13:15:25;;;;;;;;;;;;;;;;;;4921418;29;19926;-90
2022/10/26 13:17:50;;;;;;;;;;;;;;;;;;4934405;29;19926;-89
2022/10/26 13:20:16;;;;;;;;;;;;;;;;;;4941294;29;19915;-89
2022/10/26 13:22:41;;;;;;;;;;;;;;;;;;4945947;29;19919;-88
2022/10/26 13:25:07;;;;;;;;;;;;;;;;;;4925953;29;19914;-89
2022/10/26 13:27:33;;;;;;;;;;;;;;;;;;4926068;29;19914;-89
2022/10/26 13:29:58;;;;;;;;;;;;;;;;;;4898646;29;19970;-90
2022/10/26 13:32:23;;;;;;;;;;;;;;;;;;4906275;29;19918;-89
2022/10/26 13:34:49;;;;;;;;;;;;;;;;;;4925271;29;19922;-91
2022/10/26 13:37:14;;;;;;;;;;;;;;;;;;4936570;29;19918;-90
2022/10/26 13:39:40;;;;;;;;;;;;;;;;;;4933903;29;19915;-89
2022/10/26 13:42:05;;;;;;;;;;;;;;;;;;4930725;29;19923;-91
2022/10/26 13:44:31;;;;;;;;;;;;;;;;;;4911695;29;20414;-89
2022/10/26 13:46:56;;;;;;;;;;;;;;;;;;4943320;29;19915;-89
2022/10/26 13:49:22;;;;;;;;;;;;;;;;;;4902304;29;19925;-82
2022/10/26 13:51:47;;;;;;;;;;;;;;;;;;4929617;29;19915;-84
2022/10/26 13:54:13;;;;;;;;;;;;;;;;;;4918561;29;19919;-84
2022/10/26 13:56:38;;;;;;;;;;;;;;;;;;4925377;29;19914;-83
2022/10/26 13:59:03;;;;;;;;;;;;;;;;;;4937722;29;19915;-85
2022/10/26 14:01:29;;;;;;;;;;;;;;;;;;4897447;29;19969;-85
2022/10/26 14:03:54;;;;;;;;;;;;;;;;;;4956329;29;19914;-83
2022/10/26 14:06:20;;;;;;;;;;;;;;;;;;4924169;29;20062;-84
2022/10/26 14:08:46;;;;;;;;;;;;;;;;;;4922250;29;20382;-85
2022/10/26 14:11:11;;;;;;;;;;;;;;;;;;4939646;29;20349;-85
2022/10/26 14:13:37;;;;;;;;;;;;;;;;;;4947710;29;20271;-84
2022/10/26 14:16:02;;;;;;;;;;;;;;;;;;4908570;29;20294;-86
2022/10/26 14:18:28;;;;;;;;;;;;;;;;;;4904478;29;19918;-85
2022/10/26 14:20:53;;;;;;;;;;;;;;;;;;4910714;29;19915;-84
2022/10/26 14:23:19;;;;;;;;;;;;;;;;;;4926493;29;20353;-81
2022/10/26 14:25:44;;;;;;;;;;;;;;;;;;4927511;29;20014;-82
2022/10/26 14:28:10;;;;;;;;;;;;;;;;;;4932657;29;20005;-80
2022/10/26 14:30:36;;;;;;;;;;;;;;;;;;4922692;29;19915;-80
2022/10/26 14:33:01;;;;;;;;;;;;;;;;;;4937599;29;19937;-81
2022/10/26 14:35:26;;;;;;;;;;;;;;;;;;4929741;29;20364;-80
2022/10/26 14:37:52;;;;;;;;;;;;;;;;;;4946938;29;19919;-80
2022/10/26 14:40:18;;;;;;;;;;;;;;;;;;4940050;29;19915;-81
2022/10/26 14:42:45;;;;;;;;;;;;;;;;;;4933980;29;19915;-81
2022/10/26 14:45:10;;;;;;;;;;;;;;;;;;4924642;29;20386;-81
2022/10/26 14:47:36;;;;;;;;;;;;;;;;;;4929028;29;19977;-81
2022/10/26 14:50:01;;;;;;;;;;;;;;;;;;4931041;29;19915;-80
2022/10/26 14:52:27;;;;;;;;;;;;;;;;;;4922408;29;19915;-80
2022/10/26 14:54:52;;;;;;;;;;;;;;;;;;4934864;29;20005;-80
2022/10/26 14:57:18;;;;;;;;;;;;;;;;;;4952445;29;20272;-82
2022/10/26 14:59:43;;;;;;;;;;;;;;;;;;4927433;29;19994;-81
2022/10/26 15:02:09;;;;;;;;;;;;;;;;;;4948857;29;20410;-81
2022/10/26 15:04:37;;;;;;;;;;;;;;;;;;4935793;29;20358;-81
2022/10/26 15:07:03;;;;;;;;;;;;;;;;;;4925174;29;19914;-83
2022/10/26 15:09:28;;;;;;;;;;;;;;;;;;4937500;29;20401;-81
2022/10/26 15:11:54;;;;;;;;;;;;;;;;;;4926091;29;20378;-81
2022/10/26 15:14:19;;;;;;;;;;;;;;;;;;4929188;29;20270;-82
2022/10/26 15:16:45;;;;;;;;;;;;;;;;;;4970397;23;21452;-83
2022/10/26 15:19:10;;;;;;;;;;;;;;;;;;4958035;28;20416;-83
2022/10/26 15:21:36;;;;;;;;;;;;;;;;;;4967578;28;19921;-84
2022/10/26 15:24:01;;;;;;;;;;;;;;;;;;4968049;28;20285;-83
2022/10/26 15:26:27;;;;;;;;;;;;;;;;;;4979877;28;19921;-83
2022/10/26 15:28:52;;;;;;;;;;;;;;;;;;4981695;28;20001;-83
2022/10/26 15:31:18;;;;;;;;;;;;;;;;;;4983484;28;19981;-83
2022/10/26 15:33:43;;;;;;;;;;;;;;;;;;4992564;28;19914;-83
2022/10/26 15:36:08;;;;;;;;;;;;;;;;;;4977258;28;19980;-83
2022/10/26 15:38:34;;;;;;;;;;;;;;;;;;4991260;28;19953;-85
2022/10/26 15:40:59;;;;;;;;;;;;;;;;;;4962099;28;20378;-85
2022/10/26 15:43:25;;;;;;;;;;;;;;;;;;4965224;28;20057;-80
2022/10/26 15:45:55;;;;;;;;;;;;;;;;;;4982263;28;19922;-80
2022/10/26 15:48:20;;;;;;;;;;;;;;;;;;4988049;28;19953;-78
2022/10/26 15:50:45;;;;;;;;;;;;;;;;;;4976366;28;20493;-79
2022/10/26 15:53:11;;;;;;;;;;;;;;;;;;4956879;28;20382;-78
2022/10/26 15:55:36;;;;;;;;;;;;;;;;;;4972420;28;20001;-82
2022/10/26 15:58:01;;;;;;;;;;;;;;;;;;4986792;28;19922;-84
2022/10/26 16:00:27;;;;;;;;;;;;;;;;;;4980083;28;19909;-83
2022/10/26 16:02:52;;;;;;;;;;;;;;;;;;5000243;28;20017;-85
2022/10/26 16:05:18;;;;;;;;;;;;;;;;;;4988680;28;19921;-84
2022/10/26 16:07:43;;;;;;;;;;;;;;;;;;4988585;28;20008;-84
2022/10/26 16:10:08;;;;;;;;;;;;;;;;;;4972450;28;19914;-84
2022/10/26 16:12:34;;;;;;;;;;;;;;;;;;4992958;28;20189;-85
2022/10/26 16:15:00;;;;;;;;;;;;;;;;;;4980268;28;19924;-85
2022/10/26 16:17:26;;;;;;;;;;;;;;;;;;4989022;28;19922;-85
2022/10/26 16:19:51;;;;;;;;;;;;;;;;;;5227795;23;19933;-89
2022/10/26 16:22:17;;;;;;;;;;;;;;;;;;4940981;28;19914;-89
2022/10/26 16:24:42;;;;;;;;;;;;;;;;;;4938046;28;19922;-87
2022/10/26 16:27:07;;;;;;;;;;;;;;;;;;4920921;29;19915;-87
2022/10/26 16:29:33;;;;;;;;;;;;;;;;;;4917981;29;19926;-87
2022/10/26 16:31:58;;;;;;;;;;;;;;;;;;4929544;29;19915;-87
2022/10/26 16:34:23;;;;;;;;;;;;;;;;;;4933097;29;20275;-88
2022/10/26 16:36:49;;;;;;;;;;;;;;;;;;4921028;29;19926;-89
2022/10/26 16:39:14;;;;;;;;;;;;;;;;;;4921034;29;20417;-89
2022/10/26 16:41:40;;;;;;;;;;;;;;;;;;4925898;29;20294;-89